createdAt,value
2022-12-17T00:00:14.545Z,5.00
2022-12-17T00:02:59.879Z,6.43
2022-12-17T00:05:45.265Z,5.83
2022-12-17T00:08:30.635Z,6.33
2022-12-17T00:11:17.243Z,7.80
2022-12-17T00:14:02.922Z,6.70
2022-12-17T00:16:47.962Z,9.03
2022-12-17T00:19:33.407Z,6.23
2022-12-17T00:22:18.551Z,11.00
2022-12-17T00:25:04.041Z,12.93
2022-12-17T00:27:49.318Z,9.77
2022-12-17T00:30:34.527Z,14.10
2022-12-17T00:33:19.491Z,10.47
2022-12-17T00:36:12.511Z,9.77
2022-12-17T00:38:58.131Z,9.47
2022-12-17T00:41:43.599Z,12.27
2022-12-17T00:44:28.937Z,13.47
2022-12-17T00:47:14.510Z,13.27
2022-12-17T00:49:59.808Z,12.80
2022-12-17T00:52:44.833Z,12.43
2022-12-17T00:55:30.055Z,13.23
2022-12-17T00:58:16.349Z,12.77
2022-12-17T01:01:01.700Z,13.20
2022-12-17T01:03:47.198Z,14.43
2022-12-17T01:06:32.544Z,11.27
2022-12-17T01:09:17.871Z,13.47
2022-12-17T01:12:03.053Z,16.23
2022-12-17T01:14:48.434Z,15.10
2022-12-17T01:17:33.925Z,14.47
2022-12-17T01:20:19.124Z,12.63
2022-12-17T01:23:04.806Z,14.93
2022-12-17T01:25:50.195Z,13.87
2022-12-17T01:28:41.128Z,12.57
2022-12-17T01:31:31.470Z,13.30
2022-12-17T01:34:20.000Z,14.37
2022-12-17T01:37:05.184Z,12.27
2022-12-17T01:39:50.039Z,14.60
2022-12-17T01:42:35.568Z,15.63
2022-12-17T01:45:22.421Z,13.70
2022-12-17T01:48:23.657Z,19.33
2022-12-17T01:51:13.556Z,13.97
2022-12-17T01:54:16.422Z,14.47
2022-12-17T01:57:02.468Z,15.27
2022-12-17T01:59:59.784Z,18.00
2022-12-17T02:02:45.228Z,12.63
2022-12-17T02:05:30.471Z,13.67
2022-12-17T02:08:42.600Z,13.40
2022-12-17T02:11:45.035Z,11.93
2022-12-17T02:15:00.552Z,12.23
2022-12-17T02:17:52.868Z,12.43
2022-12-17T02:20:43.974Z,16.90
2022-12-17T02:23:42.275Z,13.20
2022-12-17T02:26:32.058Z,13.40
2022-12-17T02:29:18.979Z,11.47
2022-12-17T02:32:04.882Z,14.87
2022-12-17T02:34:50.083Z,11.73
2022-12-17T02:37:35.721Z,13.30
2022-12-17T02:40:20.844Z,11.73
2022-12-17T02:43:07.603Z,14.47
2022-12-17T02:45:53.245Z,13.03
2022-12-17T02:48:38.922Z,15.07
2022-12-17T02:51:24.678Z,13.53
2022-12-17T02:54:12.275Z,12.67
2022-12-17T02:56:57.446Z,12.50
2022-12-17T02:59:42.633Z,11.70
2022-12-17T03:02:28.179Z,9.70
2022-12-17T03:05:42.916Z,15.00
2022-12-17T03:08:18.916Z,18.60
2022-12-17T03:11:04.301Z,13.80
2022-12-17T03:13:49.474Z,14.93
2022-12-17T03:16:37.897Z,13.90
2022-12-17T03:19:23.322Z,14.57
2022-12-17T03:22:08.835Z,15.53
2022-12-17T03:24:53.987Z,12.57
2022-12-17T03:27:39.443Z,12.70
2022-12-17T03:30:25.071Z,12.40
2022-12-17T03:33:10.334Z,12.17
2022-12-17T03:35:55.939Z,15.13
2022-12-17T03:38:41.294Z,10.57
2022-12-17T03:41:26.229Z,12.63
2022-12-17T03:44:11.628Z,12.00
2022-12-17T03:46:56.595Z,15.70
2022-12-17T03:49:41.516Z,15.40
2022-12-17T03:52:26.947Z,14.30
2022-12-17T03:55:12.141Z,16.20
2022-12-17T03:57:57.266Z,11.40
2022-12-17T04:00:42.111Z,14.20
2022-12-17T04:03:27.671Z,14.30
2022-12-17T04:06:12.986Z,10.47
2022-12-17T04:08:58.027Z,14.13
2022-12-17T04:11:43.472Z,14.27
2022-12-17T04:14:28.540Z,12.97
2022-12-17T04:17:13.809Z,15.37
2022-12-17T04:19:59.232Z,15.60
2022-12-17T04:22:44.815Z,17.00
2022-12-17T04:25:30.074Z,18.40
2022-12-17T04:28:15.685Z,16.33
2022-12-17T04:31:01.073Z,13.47
2022-12-17T04:33:46.461Z,14.93
2022-12-17T04:36:31.815Z,18.83
2022-12-17T04:39:16.653Z,15.77
2022-12-17T04:42:01.898Z,14.93
2022-12-17T04:44:47.264Z,10.53
2022-12-17T04:47:32.483Z,13.60
2022-12-17T04:50:17.861Z,12.40
2022-12-17T04:53:03.365Z,11.87
2022-12-17T04:55:49.014Z,11.90
2022-12-17T04:58:34.327Z,12.43
2022-12-17T05:01:19.940Z,11.50
2022-12-17T05:04:04.894Z,15.37
2022-12-17T05:06:50.414Z,23.07
2022-12-17T05:09:35.874Z,27.13
2022-12-17T05:12:21.332Z,22.93
2022-12-17T05:15:06.653Z,17.70
2022-12-17T05:17:51.881Z,16.23
2022-12-17T05:20:37.249Z,12.17
2022-12-17T05:23:23.972Z,18.27
2022-12-17T05:26:14.423Z,13.57
2022-12-17T05:28:59.266Z,24.90
2022-12-17T05:31:44.276Z,32.83
2022-12-17T05:34:29.404Z,17.80
2022-12-17T05:37:14.573Z,15.60
2022-12-17T05:39:59.536Z,23.43
2022-12-17T05:42:44.271Z,21.53
2022-12-17T05:45:29.421Z,21.70
2022-12-17T05:48:17.500Z,48.53
2022-12-17T05:51:07.421Z,28.13
2022-12-17T05:53:52.814Z,17.80
2022-12-17T05:56:38.096Z,12.57
2022-12-17T05:59:23.392Z,13.83
2022-12-17T06:02:08.616Z,12.87
2022-12-17T06:04:57.455Z,20.23
2022-12-17T06:07:45.525Z,20.87
2022-12-17T06:10:30.427Z,16.17
2022-12-17T06:13:16.391Z,22.07
2022-12-17T06:16:01.832Z,18.37
2022-12-17T06:18:46.847Z,25.87
2022-12-17T06:21:31.765Z,25.73
2022-12-17T06:24:21.117Z,14.20
2022-12-17T06:27:05.957Z,9.80
2022-12-17T06:29:51.228Z,12.70
2022-12-17T06:32:36.438Z,33.20
2022-12-17T06:35:21.983Z,16.30
2022-12-17T06:38:06.814Z,16.03
2022-12-17T06:40:51.817Z,11.23
2022-12-17T06:43:37.970Z,12.87
2022-12-17T06:46:23.611Z,13.73
2022-12-17T06:49:08.823Z,13.03
2022-12-17T06:51:54.197Z,13.50
2022-12-17T06:54:39.345Z,13.90
2022-12-17T06:57:24.940Z,8.77
2022-12-17T07:00:10.862Z,11.20
2022-12-17T07:03:00.300Z,11.17
2022-12-17T07:05:46.244Z,9.53
2022-12-17T07:08:31.815Z,11.27
2022-12-17T07:11:20.987Z,12.33
2022-12-17T07:14:06.265Z,10.20
2022-12-17T07:16:51.254Z,12.17
2022-12-17T07:19:36.102Z,13.73
2022-12-17T07:22:21.085Z,10.67
2022-12-17T07:25:06.087Z,14.50
2022-12-17T07:27:50.908Z,9.97
2022-12-17T07:30:40.894Z,12.20
2022-12-17T07:33:28.610Z,13.10
2022-12-17T07:36:15.085Z,12.37
2022-12-17T07:39:00.169Z,15.57
2022-12-17T07:41:45.087Z,10.73
2022-12-17T07:44:29.892Z,9.73
2022-12-17T07:47:15.347Z,9.80
2022-12-17T07:50:00.991Z,14.00
2022-12-17T07:52:46.421Z,10.97
2022-12-17T07:55:31.809Z,11.87
2022-12-17T07:58:18.918Z,12.97
2022-12-17T08:01:04.441Z,13.60
2022-12-17T08:03:50.155Z,16.50
2022-12-17T08:06:35.855Z,14.23
2022-12-17T08:09:21.068Z,20.70
2022-12-17T08:12:06.258Z,18.90
2022-12-17T08:14:51.759Z,18.30
2022-12-17T08:17:37.329Z,21.10
2022-12-17T08:20:23.246Z,18.87
2022-12-17T08:23:08.855Z,20.37
2022-12-17T08:25:54.061Z,18.57
2022-12-17T08:28:50.447Z,15.00
2022-12-17T08:31:36.453Z,14.43
2022-12-17T08:34:22.195Z,20.97
2022-12-17T08:37:07.357Z,17.33
2022-12-17T08:39:52.617Z,19.23
2022-12-17T08:42:38.240Z,10.70
2022-12-17T08:45:24.248Z,15.03
2022-12-17T08:48:09.712Z,10.17
2022-12-17T08:50:54.887Z,10.87
2022-12-17T08:53:40.793Z,14.07
2022-12-17T08:56:26.517Z,12.53
2022-12-17T08:59:11.900Z,13.00
2022-12-17T09:01:57.414Z,12.83
2022-12-17T09:04:42.897Z,10.43
2022-12-17T09:07:28.287Z,7.70
2022-12-17T09:10:13.987Z,13.77
2022-12-17T09:13:04.358Z,9.60
2022-12-17T09:15:50.267Z,10.30
2022-12-17T09:18:39.706Z,11.93
2022-12-17T09:21:26.240Z,13.20
2022-12-17T09:24:11.396Z,8.30
2022-12-17T09:26:56.491Z,10.03
2022-12-17T09:29:41.887Z,14.63
2022-12-17T09:32:27.168Z,12.20
2022-12-17T09:35:12.398Z,10.23
2022-12-17T09:37:57.607Z,12.57
2022-12-17T09:40:43.586Z,11.37
2022-12-17T09:44:10.086Z,11.80
2022-12-17T09:47:03.446Z,12.87
2022-12-17T09:49:48.915Z,31.73
2022-12-17T09:52:45.198Z,12.30
2022-12-17T09:55:39.138Z,22.13
2022-12-17T09:58:25.431Z,21.73
2022-12-17T10:01:11.603Z,23.23
2022-12-17T10:04:04.820Z,11.50
2022-12-17T10:06:50.587Z,11.00
2022-12-17T10:09:37.455Z,10.97
2022-12-17T10:12:35.875Z,13.80
2022-12-17T10:15:21.171Z,15.60
2022-12-17T10:18:06.345Z,17.37
2022-12-17T10:20:58.807Z,15.53
2022-12-17T10:23:49.041Z,12.03
2022-12-17T10:26:43.129Z,14.90
2022-12-17T10:29:45.541Z,16.63
2022-12-17T10:32:35.892Z,13.83
2022-12-17T10:35:36.177Z,15.13
2022-12-17T10:38:32.546Z,15.70
2022-12-17T10:41:17.640Z,10.03
2022-12-17T10:44:03.329Z,10.63
2022-12-17T10:46:50.385Z,10.43
2022-12-17T10:49:37.847Z,10.90
2022-12-17T10:52:37.969Z,10.70
2022-12-17T10:55:24.511Z,14.63
2022-12-17T10:58:11.242Z,10.37
2022-12-17T11:00:58.298Z,8.60
2022-12-17T11:03:47.537Z,7.90
2022-12-17T11:06:42.219Z,11.27
2022-12-17T11:09:51.477Z,11.00
2022-12-17T11:12:38.824Z,10.47
2022-12-17T11:16:05.049Z,9.53
2022-12-17T11:19:13.914Z,13.23
2022-12-17T11:22:02.893Z,11.53
2022-12-17T11:24:53.725Z,6.20
2022-12-17T11:27:42.338Z,4.80
2022-12-17T11:30:34.556Z,6.10
2022-12-17T11:33:28.611Z,7.93
2022-12-17T11:36:35.177Z,6.10
2022-12-17T11:39:45.771Z,6.70
2022-12-17T11:42:37.694Z,7.10
2022-12-17T11:45:49.193Z,7.30
2022-12-17T11:48:49.411Z,7.63
2022-12-17T11:51:47.647Z,7.73
2022-12-17T11:54:44.526Z,4.10
2022-12-17T11:57:41.167Z,2.73
2022-12-17T12:00:35.990Z,4.43
2022-12-17T12:03:27.431Z,4.80
2022-12-17T12:06:15.150Z,3.70
2022-12-17T12:09:27.291Z,5.93
2022-12-17T12:12:32.198Z,6.57
2022-12-17T12:15:40.394Z,2.77
2022-12-17T12:18:43.712Z,6.27
2022-12-17T12:21:54.672Z,6.90
2022-12-17T12:25:16.920Z,4.87
2022-12-17T12:28:29.968Z,4.33
2022-12-17T12:31:34.256Z,3.57
2022-12-17T12:34:21.876Z,3.40
2022-12-17T12:37:08.043Z,5.90
2022-12-17T12:39:59.240Z,2.53
2022-12-17T12:43:07.352Z,2.87
2022-12-17T12:46:19.015Z,2.90
2022-12-17T12:49:15.967Z,4.20
2022-12-17T12:52:01.646Z,3.33
2022-12-17T12:55:05.382Z,4.40
2022-12-17T12:57:58.227Z,5.27
2022-12-17T13:00:49.580Z,4.17
2022-12-17T13:03:41.783Z,7.20
2022-12-17T13:06:08.806Z,3.37
2022-12-17T13:08:36.197Z,6.40
2022-12-17T13:11:38.928Z,3.07
2022-12-17T13:14:19.847Z,3.40
2022-12-17T13:16:53.840Z,4.10
2022-12-17T13:19:31.977Z,6.90
2022-12-17T13:22:17.771Z,6.30
2022-12-17T13:24:52.784Z,6.00
2022-12-17T13:27:34.928Z,4.60
2022-12-17T13:30:29.436Z,12.43
2022-12-17T13:33:02.286Z,4.80
2022-12-17T13:35:41.308Z,8.40
2022-12-17T13:38:43.677Z,7.20
2022-12-17T13:41:13.152Z,11.00
2022-12-17T13:43:49.017Z,12.90
2022-12-17T13:46:26.059Z,13.37
2022-12-17T13:48:54.703Z,11.37
2022-12-17T13:51:22.435Z,15.50
2022-12-17T13:54:00.687Z,14.43
2022-12-17T13:56:36.169Z,13.77
2022-12-17T13:59:09.089Z,8.83
2022-12-17T14:01:49.228Z,12.90
2022-12-17T14:04:27.433Z,11.90
2022-12-17T14:06:59.397Z,10.63
2022-12-17T14:09:39.489Z,7.73
2022-12-17T14:12:22.346Z,10.27
2022-12-17T14:14:56.020Z,11.60
2022-12-17T14:17:35.479Z,8.90
2022-12-17T14:20:08.407Z,11.00
2022-12-17T14:22:50.786Z,8.77
2022-12-17T14:25:20.560Z,8.10
2022-12-17T14:27:57.431Z,7.23
2022-12-17T14:30:25.804Z,12.50
2022-12-17T14:32:52.563Z,15.63
2022-12-17T14:35:31.159Z,8.40
2022-12-17T14:37:58.000Z,9.47
2022-12-17T14:40:25.761Z,13.83
2022-12-17T14:42:57.797Z,6.97
2022-12-17T14:45:26.108Z,15.87
2022-12-17T14:48:00.956Z,11.40
2022-12-17T14:50:33.421Z,67.53
2022-12-17T14:53:05.416Z,198.37
2022-12-17T14:55:39.183Z,118.13
2022-12-17T14:58:11.966Z,34.47
2022-12-17T15:00:41.067Z,34.10
2022-12-17T15:03:19.125Z,31.50
2022-12-17T15:05:51.436Z,21.27
2022-12-17T15:08:18.488Z,30.97
2022-12-17T15:10:45.194Z,68.67
2022-12-17T15:13:12.162Z,59.37
2022-12-17T15:15:38.797Z,36.13
2022-12-17T15:18:05.557Z,20.20
2022-12-17T15:20:32.249Z,13.27
2022-12-17T15:22:58.995Z,9.77
2022-12-17T15:25:25.689Z,7.87
2022-12-17T15:27:52.543Z,4.57
2022-12-17T15:30:19.839Z,12.10
2022-12-17T15:32:47.529Z,8.57
2022-12-17T15:35:14.668Z,7.80
2022-12-17T15:37:41.330Z,10.37
2022-12-17T15:40:10.868Z,5.63
2022-12-17T15:42:57.443Z,7.20
2022-12-17T15:45:25.928Z,7.53
2022-12-17T15:47:52.678Z,6.27
2022-12-17T15:50:19.609Z,5.60
2022-12-17T15:52:46.368Z,6.90
2022-12-17T15:55:13.310Z,6.53
2022-12-17T15:57:40.026Z,10.10
2022-12-17T16:00:07.441Z,9.47
2022-12-17T16:02:34.376Z,6.50
2022-12-17T16:05:01.298Z,9.90
2022-12-17T16:07:28.099Z,2.70
2022-12-17T16:09:55.262Z,3.60
2022-12-17T16:12:23.848Z,4.90
2022-12-17T16:14:50.638Z,3.90
2022-12-17T16:17:17.357Z,4.80
2022-12-17T16:19:44.067Z,8.73
2022-12-17T16:22:10.712Z,5.53
2022-12-17T16:24:37.438Z,5.50
2022-12-17T16:27:04.960Z,4.77
2022-12-17T16:29:31.766Z,5.60
2022-12-17T16:31:59.917Z,3.60
2022-12-17T16:34:26.698Z,5.40
2022-12-17T16:36:53.408Z,12.33
2022-12-17T16:39:20.308Z,15.10
2022-12-17T16:41:47.139Z,10.73
2022-12-17T16:44:13.806Z,5.07
2022-12-17T16:46:42.452Z,4.30
2022-12-17T16:49:12.737Z,8.20
2022-12-17T16:51:39.927Z,11.83
2022-12-17T16:54:09.240Z,16.00
2022-12-17T16:56:40.124Z,5.43
2022-12-17T16:59:08.548Z,5.57
2022-12-17T17:01:36.865Z,3.70
2022-12-17T17:04:05.615Z,4.40
2022-12-17T17:06:34.010Z,4.47
2022-12-17T17:09:06.335Z,3.33
2022-12-17T17:11:33.058Z,3.03
2022-12-17T17:14:00.008Z,3.87
2022-12-17T17:16:27.227Z,3.13
2022-12-17T17:18:54.257Z,2.80
2022-12-17T17:21:21.718Z,3.60
2022-12-17T17:23:50.399Z,4.00
2022-12-17T17:26:17.587Z,2.63
2022-12-17T17:28:45.696Z,2.57
2022-12-17T17:31:13.816Z,6.67
2022-12-17T17:33:46.751Z,6.73
2022-12-17T17:36:25.539Z,4.53
2022-12-17T17:38:56.207Z,3.57
2022-12-17T17:41:25.490Z,3.80
2022-12-17T17:44:04.209Z,2.10
2022-12-17T17:46:31.773Z,2.93
2022-12-17T17:49:00.086Z,3.53
2022-12-17T17:52:07.229Z,6.00
2022-12-17T17:54:16.595Z,5.10
2022-12-17T17:56:43.737Z,3.77
2022-12-17T17:59:16.046Z,9.07
2022-12-17T18:01:45.255Z,10.37
2022-12-17T18:04:13.906Z,9.90
2022-12-17T18:06:57.441Z,11.13
2022-12-17T18:09:29.069Z,4.13
2022-12-17T18:11:55.729Z,3.90
2022-12-17T18:14:22.568Z,4.10
2022-12-17T18:16:49.251Z,2.20
2022-12-17T18:19:20.596Z,2.83
2022-12-17T18:21:48.008Z,3.40
2022-12-17T18:24:22.867Z,5.20
2022-12-17T18:26:51.015Z,4.30
2022-12-17T18:29:23.328Z,3.60
2022-12-17T18:31:52.118Z,2.97
2022-12-17T18:34:21.270Z,3.13
2022-12-17T18:36:48.814Z,3.37
2022-12-17T18:39:19.008Z,2.87
2022-12-17T18:42:05.414Z,2.30
2022-12-17T18:44:34.160Z,4.73
2022-12-17T18:47:00.979Z,5.87
2022-12-17T18:49:27.977Z,3.63
2022-12-17T19:00:32.144Z,3.67
2022-12-17T19:02:58.917Z,4.43
2022-12-17T19:05:25.699Z,2.90
2022-12-17T19:07:52.367Z,2.63
2022-12-17T19:10:19.058Z,2.67
2022-12-17T19:12:45.767Z,1.37
2022-12-17T19:15:12.507Z,3.03
2022-12-17T19:17:39.325Z,3.80
2022-12-17T19:20:06.538Z,2.30
2022-12-17T19:22:33.198Z,4.53
2022-12-17T19:24:59.918Z,2.97
2022-12-17T19:27:26.606Z,3.47
2022-12-17T19:29:55.082Z,1.80
2022-12-17T19:32:22.137Z,2.53
2022-12-17T19:34:48.931Z,3.77
2022-12-17T19:37:16.105Z,2.23
2022-12-17T19:39:42.849Z,4.00
2022-12-17T19:42:24.974Z,6.07
2022-12-17T19:44:53.198Z,2.10
2022-12-17T19:47:19.988Z,2.00
2022-12-17T19:49:46.659Z,2.03
2022-12-17T19:52:13.389Z,4.57
2022-12-17T19:54:40.088Z,4.20
2022-12-17T19:57:07.085Z,3.53
2022-12-17T19:59:34.200Z,3.60
2022-12-17T20:02:03.820Z,10.00
2022-12-17T20:04:31.078Z,4.67
2022-12-17T20:06:58.901Z,4.40
2022-12-17T20:09:25.568Z,6.07
2022-12-17T20:11:52.527Z,9.27
2022-12-17T20:14:26.628Z,7.83
2022-12-17T20:16:56.785Z,3.70
2022-12-17T20:19:25.348Z,3.03
2022-12-17T20:21:52.897Z,4.37
2022-12-17T20:24:20.241Z,2.93
2022-12-17T20:26:49.944Z,5.37
2022-12-17T20:29:17.233Z,2.60
2022-12-17T20:31:49.396Z,6.17
2022-12-17T20:34:18.218Z,2.97
2022-12-17T20:36:44.925Z,3.73
2022-12-17T20:39:12.219Z,3.77
2022-12-17T20:41:40.270Z,3.53
2022-12-17T20:44:11.395Z,3.87
2022-12-17T20:46:38.217Z,3.33
2022-12-17T20:49:05.707Z,3.30
2022-12-17T20:51:32.866Z,1.70
2022-12-17T20:54:00.740Z,3.33
2022-12-17T20:56:30.220Z,4.30
2022-12-17T20:59:02.972Z,1.23
2022-12-17T21:01:31.323Z,2.40
2022-12-17T21:03:58.648Z,2.70
2022-12-17T21:06:28.021Z,3.93
2022-12-17T21:08:55.928Z,4.03
2022-12-17T21:11:27.795Z,2.10
2022-12-17T21:13:55.200Z,6.67
2022-12-17T21:16:30.156Z,10.20
2022-12-17T21:18:58.157Z,4.57
2022-12-17T21:21:27.926Z,12.83
2022-12-17T21:23:56.360Z,10.30
2022-12-17T21:26:31.766Z,11.00
2022-12-17T21:28:58.919Z,11.27
2022-12-17T21:31:31.179Z,7.13
2022-12-17T21:34:00.304Z,10.40
2022-12-17T21:36:28.786Z,14.80
2022-12-17T21:38:55.432Z,16.80
2022-12-17T21:41:26.302Z,4.57
2022-12-17T21:43:57.645Z,7.87
2022-12-17T21:46:27.135Z,6.03
2022-12-17T21:48:54.458Z,7.87
2022-12-17T21:51:21.697Z,6.07
2022-12-17T21:53:53.180Z,10.10
2022-12-17T21:56:19.983Z,9.90
2022-12-17T21:58:47.444Z,6.90
2022-12-17T22:01:18.487Z,4.23
2022-12-17T22:03:53.033Z,6.30
2022-12-17T22:06:24.009Z,11.30
2022-12-17T22:08:54.108Z,4.10
2022-12-17T22:11:27.104Z,3.90
2022-12-17T22:14:07.375Z,3.97
2022-12-17T22:16:42.541Z,5.57
2022-12-17T22:19:25.416Z,3.47
2022-12-17T22:21:54.330Z,5.47
2022-12-17T22:24:25.009Z,6.83
2022-12-17T22:26:51.679Z,4.67
2022-12-17T22:29:41.320Z,9.50
2022-12-17T22:32:27.899Z,5.67
2022-12-17T22:35:23.848Z,16.10
2022-12-17T22:40:44.677Z,7.07
2022-12-17T22:44:32.241Z,12.27
2022-12-17T22:44:45.404Z,5.70
2022-12-17T22:46:19.867Z,10.30
2022-12-17T22:48:46.898Z,7.60
2022-12-17T22:51:16.678Z,6.90
2022-12-17T22:53:50.940Z,6.90
2022-12-17T22:56:34.782Z,6.10
2022-12-17T22:59:05.917Z,2.70
2022-12-17T23:01:33.103Z,3.23
2022-12-17T23:04:01.444Z,3.80
2022-12-17T23:06:28.327Z,3.63
2022-12-17T23:08:55.013Z,4.00
2022-12-17T23:11:23.392Z,3.40
2022-12-17T23:13:50.637Z,5.70
2022-12-17T23:16:17.882Z,3.70
2022-12-17T23:18:45.666Z,6.00
2022-12-17T23:21:24.127Z,4.53
2022-12-17T23:23:53.172Z,4.00
2022-12-17T23:26:27.465Z,4.33
2022-12-17T23:28:58.616Z,5.17
2022-12-17T23:31:27.122Z,3.80
2022-12-17T23:33:53.786Z,3.33
2022-12-17T23:36:23.289Z,7.00
2022-12-17T23:38:50.397Z,4.47
2022-12-17T23:41:20.120Z,2.73
2022-12-17T23:43:47.828Z,5.03
2022-12-17T23:46:15.036Z,2.00
2022-12-17T23:48:45.566Z,4.93
2022-12-17T23:51:14.342Z,5.53
2022-12-17T23:53:42.245Z,5.17
2022-12-17T23:56:23.582Z,2.13
2022-12-17T23:58:53.533Z,4.30
